Portada
METAR-TAF:

METAR-TAF

Aeropuertos :

Kinloss, Escocia

latitud: 57-39N, longitud: 003-34W, altitud: 7 m

Observación

El informe se hizo hace 41 minutos, a las 05:50 UTC
Viento 4 kt del este
Temperatura 12°C
Humedad 76%
Presión 1015 hPa

METAR: EGQK 190550Z AUTO 10004KT //// BKN070/// BKN150/// 12/08 Q1015

Hora: 07:31 (06:31 UTC)


TAF: falta

Observaciones y pronósticos meteorológicos de más de 4000 aeropuertos (mensajes METAR y TAF).

Los puntos amarillos y rojos representan las estaciones disponibles.

Ponga el ratón en el punto deseado para ver el nombre de la estación.

Haga clic para ver las observaciones y los pronósticos meteorológicos.

Para cambiar el mapa : haga clic en los botones verdes con una cruz de color negro para hacer un zoom, en el botón verde con un guión para alejar o en las flechas verdes para mapas adyacentes.


METAR-TAF: